createdAt,value
2022-12-19T00:01:43.343Z,42.75
2022-12-19T00:04:12.690Z,36.33
2022-12-19T00:06:43.658Z,25.23
2022-12-19T00:09:11.852Z,32.55
2022-12-19T00:11:39.572Z,42.88
2022-12-19T00:14:07.297Z,43.03
2022-12-19T00:16:34.078Z,36.83
2022-12-19T00:19:01.938Z,38.25
2022-12-19T00:21:34.944Z,34.75
2022-12-19T00:24:20.547Z,52.78
2022-12-19T00:26:49.553Z,43.42
2022-12-19T00:29:16.484Z,38.13
2022-12-19T00:31:44.285Z,38.10
2022-12-19T00:34:11.129Z,30.60
2022-12-19T00:36:39.931Z,29.90
2022-12-19T00:39:08.393Z,40.90
2022-12-19T00:41:37.294Z,28.13
2022-12-19T00:44:07.140Z,31.83
2022-12-19T00:46:35.271Z,23.63
2022-12-19T00:49:03.265Z,33.28
2022-12-19T00:51:32.611Z,28.80
2022-12-19T00:53:59.951Z,25.73
2022-12-19T00:56:33.427Z,29.83
2022-12-19T00:59:06.330Z,21.75
2022-12-19T01:01:37.094Z,30.10
2022-12-19T01:06:54.752Z,27.97
2022-12-19T01:09:32.612Z,29.67
2022-12-19T01:12:17.740Z,27.52
2022-12-19T01:14:44.916Z,39.42
2022-12-19T01:17:12.278Z,32.08
2022-12-19T01:19:43.934Z,37.93
2022-12-19T01:22:12.501Z,33.55
2022-12-19T01:24:40.133Z,34.60
2022-12-19T01:27:07.546Z,29.45
2022-12-19T01:29:34.670Z,34.83
2022-12-19T01:32:05.772Z,24.33
2022-12-19T01:34:32.713Z,31.88
2022-12-19T01:36:59.641Z,33.55
2022-12-19T01:39:26.914Z,33.38
2022-12-19T01:41:58.134Z,35.45
2022-12-19T01:44:26.014Z,40.40
2022-12-19T01:46:57.584Z,38.95
2022-12-19T01:49:36.297Z,36.17
2022-12-19T01:52:07.223Z,42.70
2022-12-19T01:54:39.895Z,26.17
2022-12-19T01:57:12.330Z,19.80
2022-12-19T01:59:46.012Z,18.60
2022-12-19T02:02:37.223Z,37.92
2022-12-19T02:05:05.731Z,35.65
2022-12-19T02:07:34.164Z,30.67
2022-12-19T02:10:00.995Z,42.63
2022-12-19T02:12:38.016Z,20.42
2022-12-19T02:15:07.064Z,23.55
2022-12-19T02:17:58.707Z,25.85
2022-12-19T02:20:59.639Z,31.75
2022-12-19T02:23:37.534Z,27.17
2022-12-19T02:26:42.633Z,26.98
2022-12-19T02:29:35.769Z,30.98
2022-12-19T02:32:22.029Z,22.80
2022-12-19T02:34:58.644Z,17.10
2022-12-19T02:37:33.187Z,25.47
2022-12-19T02:40:23.126Z,20.38
2022-12-19T02:42:56.265Z,30.15
2022-12-19T02:45:28.450Z,19.05
2022-12-19T02:48:03.342Z,28.30
2022-12-19T02:50:37.872Z,33.17
2022-12-19T02:53:04.802Z,30.98
2022-12-19T02:55:37.676Z,30.92
2022-12-19T02:58:33.702Z,30.75
2022-12-19T03:01:15.184Z,27.70
2022-12-19T03:04:04.716Z,26.57
2022-12-19T03:06:42.897Z,24.20
2022-12-19T03:09:40.684Z,17.10
2022-12-19T03:12:17.370Z,19.42
2022-12-19T03:14:46.919Z,30.65
2022-12-19T03:17:14.215Z,20.53
2022-12-19T03:19:41.808Z,13.77
2022-12-19T03:22:08.874Z,23.15
2022-12-19T03:24:35.850Z,23.83
2022-12-19T03:27:07.985Z,20.52
2022-12-19T03:29:47.577Z,24.43
2022-12-19T03:32:16.157Z,24.45
2022-12-19T03:34:59.676Z,23.25
2022-12-19T03:37:31.433Z,23.27
2022-12-19T03:40:02.262Z,16.63
2022-12-19T03:42:50.338Z,28.37
2022-12-19T03:45:26.322Z,17.75
2022-12-19T03:47:59.739Z,19.58
2022-12-19T03:50:32.628Z,24.75
2022-12-19T03:53:14.312Z,19.08
2022-12-19T03:55:50.052Z,16.83
2022-12-19T03:58:28.761Z,20.20
2022-12-19T04:00:56.080Z,15.48
2022-12-19T04:03:24.207Z,15.65
2022-12-19T04:05:51.808Z,20.80
2022-12-19T04:08:18.979Z,21.47
2022-12-19T04:10:55.161Z,15.27
2022-12-19T04:13:44.719Z,16.58
2022-12-19T04:16:30.168Z,18.33
2022-12-19T04:19:24.076Z,17.63
2022-12-19T04:21:59.118Z,14.07
2022-12-19T04:24:31.070Z,18.30
2022-12-19T04:26:59.640Z,16.50
2022-12-19T04:29:28.149Z,14.93
2022-12-19T04:31:55.968Z,18.17
2022-12-19T04:34:22.926Z,12.97
2022-12-19T04:36:51.106Z,10.40
2022-12-19T04:39:18.005Z,13.52
2022-12-19T04:41:44.941Z,15.38
2022-12-19T04:44:11.895Z,12.77
2022-12-19T04:46:38.665Z,12.50
2022-12-19T04:49:05.469Z,16.58
2022-12-19T04:51:32.378Z,11.05
2022-12-19T04:53:59.204Z,15.10
2022-12-19T04:56:26.091Z,13.27
2022-12-19T04:58:58.366Z,13.07
2022-12-19T05:01:25.820Z,11.02
2022-12-19T05:03:56.618Z,12.93
2022-12-19T05:06:26.294Z,10.80
2022-12-19T05:08:53.045Z,13.90
2022-12-19T05:11:20.163Z,12.30
2022-12-19T05:13:47.933Z,11.30
2022-12-19T05:16:15.936Z,12.48
2022-12-19T05:18:43.650Z,10.20
2022-12-19T05:21:11.112Z,10.18
2022-12-19T05:23:37.924Z,12.50
2022-12-19T05:26:05.840Z,14.10
2022-12-19T05:28:33.930Z,13.30
2022-12-19T05:31:13.418Z,12.00
2022-12-19T05:33:40.911Z,9.05
2022-12-19T05:36:08.667Z,22.30
2022-12-19T05:38:36.021Z,13.55
2022-12-19T05:41:30.089Z,16.27
2022-12-19T05:43:56.987Z,10.60
2022-12-19T05:46:24.932Z,13.45
2022-12-19T05:48:52.034Z,11.10
2022-12-19T05:51:19.701Z,8.75
2022-12-19T05:53:46.988Z,12.70
2022-12-19T05:56:16.833Z,11.05
2022-12-19T05:58:45.063Z,11.38
2022-12-19T06:01:38.106Z,16.20
2022-12-19T06:04:05.301Z,10.93
2022-12-19T06:06:32.032Z,12.65
2022-12-19T06:08:59.614Z,13.68
2022-12-19T06:11:27.215Z,14.25
2022-12-19T06:13:54.013Z,10.43
2022-12-19T06:16:22.828Z,11.35
2022-12-19T06:18:49.713Z,11.25
2022-12-19T06:21:19.803Z,14.98
2022-12-19T06:23:47.813Z,10.77
2022-12-19T06:26:19.949Z,14.80
2022-12-19T06:28:52.662Z,17.67
2022-12-19T06:31:21.422Z,11.50
2022-12-19T06:33:48.468Z,11.75
2022-12-19T06:36:24.452Z,14.98
2022-12-19T06:38:54.835Z,15.30
2022-12-19T06:41:40.177Z,11.43
2022-12-19T06:44:10.501Z,11.02
2022-12-19T06:46:38.941Z,13.20
2022-12-19T06:49:06.056Z,14.55
2022-12-19T06:51:32.982Z,15.60
2022-12-19T06:53:59.864Z,11.40
2022-12-19T06:56:26.804Z,12.43
2022-12-19T06:58:53.653Z,14.82
2022-12-19T07:01:29.059Z,12.88
2022-12-19T07:03:56.038Z,12.57
2022-12-19T07:06:23.628Z,13.32
2022-12-19T07:08:50.520Z,11.18
2022-12-19T07:11:17.320Z,17.02
2022-12-19T07:13:44.074Z,13.73
2022-12-19T07:16:11.154Z,14.77
2022-12-19T07:18:40.773Z,12.15
2022-12-19T07:21:11.233Z,14.65
2022-12-19T07:23:39.531Z,11.45
2022-12-19T07:26:06.732Z,13.95
2022-12-19T07:28:34.665Z,12.03
2022-12-19T07:31:01.520Z,13.27
2022-12-19T07:33:28.496Z,15.27
2022-12-19T07:35:55.270Z,15.98
2022-12-19T07:38:22.075Z,11.93
2022-12-19T07:40:48.842Z,10.20
2022-12-19T07:43:15.865Z,13.30
2022-12-19T07:45:42.898Z,12.73
2022-12-19T07:48:10.223Z,12.15
2022-12-19T07:50:37.271Z,15.90
2022-12-19T07:53:04.061Z,10.37
2022-12-19T07:55:30.908Z,12.98
2022-12-19T07:57:59.632Z,12.82
2022-12-19T08:00:26.393Z,13.10
2022-12-19T08:02:53.385Z,12.05
2022-12-19T08:05:20.329Z,13.27
2022-12-19T08:07:47.191Z,13.20
2022-12-19T08:10:15.117Z,13.48
2022-12-19T08:12:42.338Z,14.75
2022-12-19T08:15:09.878Z,10.27
2022-12-19T08:17:41.686Z,13.27
2022-12-19T08:20:11.493Z,12.38
2022-12-19T08:22:38.329Z,12.82
2022-12-19T08:25:07.237Z,15.18
2022-12-19T08:27:34.926Z,10.75
2022-12-19T08:30:01.879Z,11.87
2022-12-19T08:32:28.664Z,11.95
2022-12-19T08:34:56.693Z,14.82
2022-12-19T08:37:23.647Z,12.13
2022-12-19T08:39:50.429Z,12.48
2022-12-19T08:42:17.665Z,15.33
2022-12-19T08:44:45.831Z,11.18
2022-12-19T08:47:12.691Z,14.65
2022-12-19T08:49:39.510Z,8.82
2022-12-19T08:52:06.311Z,17.33
2022-12-19T08:54:33.037Z,11.57
2022-12-19T08:56:59.866Z,10.27
2022-12-19T08:59:31.279Z,12.90
2022-12-19T09:02:02.359Z,13.50
2022-12-19T09:05:57.907Z,8.70
2022-12-19T09:07:17.438Z,14.20
2022-12-19T09:09:45.022Z,14.27
2022-12-19T09:12:13.858Z,11.60
2022-12-19T09:14:40.693Z,12.13
2022-12-19T09:17:07.876Z,11.90
2022-12-19T09:19:34.703Z,10.17
2022-12-19T09:22:01.742Z,11.82
2022-12-19T09:24:28.667Z,10.45
2022-12-19T09:26:55.577Z,10.90
2022-12-19T09:29:22.600Z,10.30
2022-12-19T09:31:55.869Z,12.97
2022-12-19T09:34:33.000Z,9.63
2022-12-19T09:37:06.961Z,10.05
2022-12-19T09:39:35.213Z,8.20
2022-12-19T09:42:41.245Z,14.05
2022-12-19T09:45:33.228Z,9.13
2022-12-19T09:48:01.512Z,8.30
2022-12-19T09:50:51.978Z,10.52
2022-12-19T09:53:28.943Z,11.88
2022-12-19T09:55:58.435Z,9.20
2022-12-19T09:58:28.333Z,11.07
2022-12-19T10:01:00.221Z,10.65
2022-12-19T10:03:30.389Z,12.73
2022-12-19T10:07:09.485Z,10.88
2022-12-19T10:11:26.622Z,9.88
2022-12-19T10:12:45.361Z,11.67
2022-12-19T10:15:35.792Z,9.93
2022-12-19T10:18:15.397Z,11.13
2022-12-19T10:20:48.005Z,10.38
2022-12-19T10:23:45.081Z,10.20
2022-12-19T10:26:23.440Z,9.83
2022-12-19T10:29:18.641Z,9.07
2022-12-19T10:32:00.473Z,10.23
2022-12-19T10:34:48.158Z,9.02
2022-12-19T10:37:37.656Z,8.82
2022-12-19T10:40:32.388Z,7.27
2022-12-19T10:43:35.577Z,11.07
2022-12-19T10:46:13.815Z,9.00
2022-12-19T10:48:40.623Z,9.48
2022-12-19T10:51:22.152Z,13.23
2022-12-19T10:53:57.288Z,10.70
2022-12-19T10:56:36.837Z,12.35
2022-12-19T10:59:16.021Z,9.50
2022-12-19T11:01:44.183Z,9.20
2022-12-19T11:04:26.844Z,8.00
2022-12-19T11:07:03.099Z,9.83
2022-12-19T11:09:35.864Z,9.45
2022-12-19T11:16:23.013Z,8.23
2022-12-19T11:21:21.376Z,9.63
2022-12-19T11:24:14.915Z,11.48
2022-12-19T11:29:19.013Z,8.13
2022-12-19T11:29:43.817Z,9.40
2022-12-19T11:29:47.129Z,12.60
2022-12-19T11:32:42.939Z,9.27
2022-12-19T11:35:24.830Z,10.13
2022-12-19T11:38:01.221Z,9.30
2022-12-19T11:40:48.383Z,8.45
2022-12-19T11:43:56.414Z,9.30
2022-12-19T11:46:44.650Z,8.95
2022-12-19T11:49:22.570Z,8.07
2022-12-19T11:51:53.345Z,7.80
2022-12-19T11:54:37.570Z,9.25
2022-12-19T11:57:04.433Z,6.22
2022-12-19T11:59:36.418Z,7.90
2022-12-19T12:02:37.637Z,9.70
2022-12-19T12:05:09.500Z,8.65
2022-12-19T12:08:42.986Z,8.18
2022-12-19T12:12:55.055Z,8.63
2022-12-19T12:23:11.408Z,9.55
2022-12-19T12:31:06.801Z,9.97
2022-12-19T12:31:27.173Z,9.80
2022-12-19T12:31:57.031Z,6.93
2022-12-19T12:31:57.036Z,9.77
2022-12-19T12:32:02.521Z,7.22
2022-12-19T12:35:56.942Z,6.25
2022-12-19T12:40:37.469Z,7.60
2022-12-19T12:43:36.395Z,7.32
2022-12-19T12:46:05.098Z,7.17
2022-12-19T12:48:45.848Z,6.05
2022-12-19T12:51:13.635Z,5.63
2022-12-19T12:53:45.648Z,7.82
2022-12-19T12:56:16.140Z,8.40
2022-12-19T12:58:49.863Z,7.07
2022-12-19T13:01:34.768Z,8.75
2022-12-19T13:04:11.052Z,6.68
2022-12-19T13:06:39.578Z,8.23
2022-12-19T13:09:09.176Z,8.98
2022-12-19T13:12:11.881Z,8.10
2022-12-19T13:14:38.681Z,8.88
2022-12-19T13:17:06.478Z,8.90
2022-12-19T13:19:52.653Z,8.95
2022-12-19T13:22:29.528Z,7.50
2022-12-19T13:24:58.833Z,8.13
2022-12-19T13:27:25.640Z,7.15
2022-12-19T13:30:03.839Z,7.68
2022-12-19T13:32:53.649Z,6.18
2022-12-19T13:39:04.751Z,6.85
2022-12-19T13:39:48.494Z,8.70
2022-12-19T13:41:48.681Z,9.60
2022-12-19T13:44:21.287Z,8.20
2022-12-19T13:46:48.910Z,10.13
2022-12-19T13:49:28.926Z,6.05
2022-12-19T13:51:59.928Z,9.73
2022-12-19T13:54:49.173Z,9.52
2022-12-19T13:57:29.518Z,6.50
2022-12-19T14:00:04.045Z,7.38
2022-12-19T14:02:46.732Z,8.50
2022-12-19T14:06:15.748Z,7.97
2022-12-19T14:08:24.863Z,8.00
2022-12-19T14:11:31.851Z,6.53
2022-12-19T14:14:23.632Z,6.68
2022-12-19T14:17:05.287Z,4.80
2022-12-19T14:19:51.670Z,8.43
2022-12-19T14:22:25.224Z,7.18
2022-12-19T14:26:05.982Z,8.00
2022-12-19T14:28:19.528Z,10.00
2022-12-19T14:31:01.940Z,6.40
2022-12-19T14:33:44.375Z,7.30
2022-12-19T14:36:25.661Z,9.90
2022-12-19T14:39:24.703Z,6.47
2022-12-19T14:42:06.339Z,6.65
2022-12-19T14:54:01.594Z,6.13
2022-12-19T14:54:11.821Z,7.60
2022-12-19T14:54:23.814Z,5.93
2022-12-19T14:54:24.732Z,6.20
2022-12-19T14:59:02.715Z,5.55
2022-12-19T15:01:32.761Z,7.37
2022-12-19T15:04:48.303Z,7.65
2022-12-19T15:07:09.985Z,6.05
2022-12-19T15:11:05.453Z,6.05
2022-12-19T15:14:52.797Z,7.30
2022-12-19T15:16:31.082Z,6.70
2022-12-19T15:19:00.054Z,7.30
2022-12-19T15:21:29.517Z,6.47
2022-12-19T15:23:56.833Z,9.82
2022-12-19T15:26:30.335Z,6.53
2022-12-19T15:28:57.835Z,6.40
2022-12-19T15:31:44.011Z,7.57
2022-12-19T15:34:34.994Z,8.32
2022-12-19T15:37:02.991Z,7.10
2022-12-19T15:39:30.907Z,4.63
2022-12-19T15:42:00.241Z,9.20
2022-12-19T15:44:36.818Z,6.80
2022-12-19T15:47:06.713Z,8.68
2022-12-19T15:49:35.273Z,6.63
2022-12-19T15:52:02.991Z,7.50
2022-12-19T15:57:38.593Z,7.75
2022-12-19T16:00:23.052Z,8.10
2022-12-19T16:05:38.496Z,9.77
2022-12-19T16:08:16.903Z,9.30
2022-12-19T16:10:45.785Z,7.75
2022-12-19T16:13:28.473Z,9.35
2022-12-19T16:15:55.868Z,6.35
2022-12-19T16:18:22.706Z,5.35
2022-12-19T16:20:49.561Z,8.80
2022-12-19T16:23:16.594Z,6.35
2022-12-19T16:25:53.823Z,7.55
2022-12-19T16:28:36.045Z,7.53
2022-12-19T16:31:15.247Z,6.68
2022-12-19T16:33:42.341Z,9.23
2022-12-19T16:36:10.172Z,8.18
2022-12-19T16:38:37.000Z,8.70
2022-12-19T16:41:05.751Z,8.05
2022-12-19T16:43:37.778Z,6.93
2022-12-19T16:46:17.981Z,5.93
2022-12-19T16:48:45.604Z,10.05
2022-12-19T16:51:19.571Z,7.65
2022-12-19T16:53:46.856Z,7.32
2022-12-19T16:56:37.055Z,5.70
2022-12-19T16:59:11.168Z,7.77
2022-12-19T17:01:38.153Z,6.97
2022-12-19T17:04:05.295Z,7.43
2022-12-19T17:06:32.157Z,6.85
2022-12-19T17:08:58.999Z,5.63
2022-12-19T17:11:27.822Z,8.20
2022-12-19T17:14:06.007Z,9.48
2022-12-19T17:16:32.893Z,7.05
2022-12-19T17:19:00.004Z,6.10
2022-12-19T17:21:26.854Z,8.75
2022-12-19T17:23:53.921Z,7.83
2022-12-19T17:26:21.101Z,7.85
2022-12-19T17:28:48.377Z,7.57
2022-12-19T17:31:27.918Z,7.43
2022-12-19T17:33:57.763Z,7.97
2022-12-19T17:36:36.708Z,7.80
2022-12-19T17:39:19.942Z,7.28
2022-12-19T17:41:47.679Z,8.57
2022-12-19T17:44:14.561Z,6.88
2022-12-19T17:46:41.372Z,7.55
2022-12-19T17:49:29.313Z,6.67
2022-12-19T17:51:56.874Z,7.30
2022-12-19T17:54:23.821Z,6.75
2022-12-19T17:56:51.285Z,7.15
2022-12-19T17:59:19.448Z,7.05
2022-12-19T18:01:47.303Z,6.77
2022-12-19T18:04:17.143Z,6.82
2022-12-19T18:06:44.771Z,10.32
2022-12-19T18:09:18.694Z,8.95
2022-12-19T18:11:46.044Z,9.65
2022-12-19T18:14:12.891Z,9.53
2022-12-19T18:16:39.904Z,6.93
2022-12-19T18:19:07.275Z,9.35
2022-12-19T18:21:34.083Z,9.95
2022-12-19T18:24:00.859Z,8.40
2022-12-19T18:26:27.624Z,5.87
2022-12-19T18:28:54.583Z,9.13
2022-12-19T18:31:28.087Z,8.05
2022-12-19T18:33:59.553Z,8.45
2022-12-19T18:36:36.962Z,9.27
2022-12-19T18:39:04.167Z,8.07
2022-12-19T18:41:30.946Z,9.45
2022-12-19T18:43:57.842Z,9.18
2022-12-19T18:46:28.409Z,8.55
2022-12-19T18:48:55.532Z,5.97
2022-12-19T18:51:23.094Z,6.53
2022-12-19T18:53:52.016Z,8.60
2022-12-19T18:56:19.226Z,8.15
2022-12-19T18:58:46.177Z,9.13
2022-12-19T19:01:16.595Z,7.15
2022-12-19T19:03:55.310Z,7.43
2022-12-19T19:06:28.065Z,8.55
2022-12-19T19:08:57.039Z,8.35
2022-12-19T19:11:44.049Z,6.72
2022-12-19T19:14:11.628Z,9.75
2022-12-19T19:16:40.157Z,7.93
2022-12-19T19:19:10.011Z,8.52
2022-12-19T19:21:37.171Z,8.52
2022-12-19T19:24:16.529Z,7.32
2022-12-19T19:26:43.452Z,7.22
2022-12-19T19:29:10.920Z,6.67
2022-12-19T19:31:40.309Z,6.88
2022-12-19T19:34:12.949Z,7.65
2022-12-19T19:36:45.189Z,7.47
2022-12-19T19:39:13.853Z,7.07
2022-12-19T19:41:40.797Z,8.00
2022-12-19T19:44:07.909Z,7.57
2022-12-19T19:46:37.055Z,6.45
2022-12-19T19:49:04.182Z,9.32
2022-12-19T19:51:30.973Z,7.63
2022-12-19T19:53:58.226Z,7.63
2022-12-19T19:56:25.023Z,8.35
2022-12-19T19:58:52.651Z,8.48
2022-12-19T20:01:19.675Z,6.85
2022-12-19T20:03:46.722Z,9.95
2022-12-19T20:06:13.869Z,7.47
2022-12-19T20:08:41.223Z,9.98
2022-12-19T20:11:09.162Z,9.43
2022-12-19T20:13:37.650Z,6.57
2022-12-19T20:16:06.898Z,10.73
2022-12-19T20:18:34.394Z,9.30
2022-12-19T20:21:01.360Z,10.93
2022-12-19T20:23:28.429Z,9.65
2022-12-19T20:26:00.208Z,7.55
2022-12-19T20:28:27.112Z,7.50
2022-12-19T20:30:54.080Z,6.90
2022-12-19T20:33:21.067Z,8.13
2022-12-19T20:35:47.827Z,7.18
2022-12-19T20:38:14.846Z,7.43
2022-12-19T20:40:41.762Z,5.65
2022-12-19T20:43:08.582Z,7.20
2022-12-19T20:45:35.373Z,9.77
2022-12-19T20:48:02.356Z,9.30
2022-12-19T20:50:29.131Z,7.47
2022-12-19T20:52:56.051Z,8.02
2022-12-19T20:55:22.884Z,8.10
2022-12-19T20:57:49.870Z,10.75
2022-12-19T21:00:17.883Z,8.70
2022-12-19T21:03:25.690Z,9.68
2022-12-19T21:05:31.498Z,9.13
2022-12-19T21:08:06.333Z,10.23
2022-12-19T21:10:33.433Z,7.78
2022-12-19T21:13:02.293Z,8.38
2022-12-19T21:15:31.439Z,7.03
2022-12-19T21:17:58.307Z,7.70
2022-12-19T21:20:29.513Z,8.07
2022-12-19T21:23:00.987Z,8.30
2022-12-19T21:25:28.009Z,7.45
2022-12-19T21:27:55.010Z,8.52
2022-12-19T21:30:21.925Z,10.75
2022-12-19T21:32:49.727Z,6.47
2022-12-19T21:35:16.713Z,9.68
2022-12-19T21:37:50.038Z,7.82
2022-12-19T21:40:18.035Z,8.10
2022-12-19T21:42:45.366Z,7.53
2022-12-19T21:45:12.902Z,8.97
2022-12-19T21:47:41.876Z,8.75
2022-12-19T21:50:14.337Z,7.72
2022-12-19T21:52:41.892Z,10.77
2022-12-19T21:55:09.582Z,9.13
2022-12-19T21:57:41.379Z,8.90
2022-12-19T22:00:10.739Z,6.90
2022-12-19T22:02:38.104Z,7.53
2022-12-19T22:05:06.492Z,7.97
2022-12-19T22:07:34.550Z,6.07
2022-12-19T22:10:01.492Z,6.83
2022-12-19T22:12:28.318Z,7.55
2022-12-19T22:14:55.030Z,8.07
2022-12-19T22:17:21.979Z,9.30
2022-12-19T22:19:49.040Z,6.35
2022-12-19T22:22:15.765Z,8.33
2022-12-19T22:24:42.619Z,9.15
2022-12-19T22:27:09.443Z,10.63
2022-12-19T22:29:37.444Z,6.20
2022-12-19T22:32:05.128Z,7.40
2022-12-19T22:34:32.080Z,6.97
2022-12-19T22:36:58.996Z,8.13
2022-12-19T22:39:25.951Z,9.60
2022-12-19T22:41:52.850Z,9.32
2022-12-19T22:44:24.349Z,8.00
2022-12-19T22:46:52.243Z,12.87
2022-12-19T22:49:19.009Z,7.18
2022-12-19T22:51:45.782Z,7.63
2022-12-19T22:54:13.446Z,7.32
2022-12-19T22:56:41.330Z,12.02
2022-12-19T22:59:09.016Z,8.07
2022-12-19T23:01:41.899Z,6.55
2022-12-19T23:04:12.331Z,7.15
2022-12-19T23:06:39.635Z,7.25
2022-12-19T23:09:12.679Z,7.35
2022-12-19T23:11:41.448Z,6.90
2022-12-19T23:14:11.344Z,6.78
2022-12-19T23:16:38.213Z,7.20
2022-12-19T23:19:05.441Z,7.00
2022-12-19T23:21:32.737Z,6.43
2022-12-19T23:24:00.382Z,8.20
2022-12-19T23:26:30.369Z,9.55
2022-12-19T23:29:00.139Z,6.88
2022-12-19T23:31:28.054Z,8.85
2022-12-19T23:33:55.502Z,8.20
2022-12-19T23:37:00.424Z,6.33
2022-12-19T23:39:11.883Z,7.55
2022-12-19T23:41:38.859Z,8.32
2022-12-19T23:44:05.860Z,8.15
2022-12-19T23:46:32.676Z,8.63
2022-12-19T23:48:59.487Z,6.20
2022-12-19T23:51:27.764Z,7.82
2022-12-19T23:53:55.909Z,9.30
2022-12-19T23:56:25.618Z,8.73
2022-12-19T23:58:52.527Z,6.57
